sensor_id;sensor_type;location;lat;lon;timestamp;pressure;altitude;pressure_sealevel;temperature
12430;BMP280;6279;42.192;24.326;2023-03-05T00:01:32;98755.81;;;4.54
12430;BMP280;6279;42.192;24.326;2023-03-05T00:03:58;98767.88;;;4.35
12430;BMP280;6279;42.192;24.326;2023-03-05T00:06:25;98767.22;;;4.33
12430;BMP280;6279;42.192;24.326;2023-03-05T00:08:52;98765.97;;;4.28
12430;BMP280;6279;42.192;24.326;2023-03-05T00:11:18;98760.44;;;4.41
12430;BMP280;6279;42.192;24.326;2023-03-05T00:13:44;98754.31;;;4.42
12430;BMP280;6279;42.192;24.326;2023-03-05T00:16:12;98749.59;;;4.47
12430;BMP280;6279;42.192;24.326;2023-03-05T00:18:38;98766.13;;;4.36
12430;BMP280;6279;42.192;24.326;2023-03-05T00:21:04;98763.28;;;4.38
12430;BMP280;6279;42.192;24.326;2023-03-05T00:23:30;98760.28;;;4.24
12430;BMP280;6279;42.192;24.326;2023-03-05T00:25:55;98757.28;;;4.10
12430;BMP280;6279;42.192;24.326;2023-03-05T00:28:21;98756.63;;;4.17
12430;BMP280;6279;42.192;24.326;2023-03-05T00:30:46;98753.78;;;4.20
12430;BMP280;6279;42.192;24.326;2023-03-05T00:33:12;98752.03;;;4.30
12430;BMP280;6279;42.192;24.326;2023-03-05T00:35:42;98743.91;;;4.35
12430;BMP280;6279;42.192;24.326;2023-03-05T00:38:09;98734.69;;;4.41
12430;BMP280;6279;42.192;24.326;2023-03-05T00:40:39;98737.94;;;4.43
12430;BMP280;6279;42.192;24.326;2023-03-05T00:43:06;98746.09;;;4.48
12430;BMP280;6279;42.192;24.326;2023-03-05T00:45:32;98750.97;;;4.51
12430;BMP280;6279;42.192;24.326;2023-03-05T00:47:58;98749.59;;;4.38
12430;BMP280;6279;42.192;24.326;2023-03-05T00:50:24;98738.22;;;4.40
12430;BMP280;6279;42.192;24.326;2023-03-05T00:52:49;98738.34;;;4.39
12430;BMP280;6279;42.192;24.326;2023-03-05T00:55:15;98743.91;;;4.44
12430;BMP280;6279;42.192;24.326;2023-03-05T00:57:40;98727.09;;;4.49
12430;BMP280;6279;42.192;24.326;2023-03-05T01:00:06;98733.75;;;4.52
12430;BMP280;6279;42.192;24.326;2023-03-05T01:02:32;98726.84;;;4.52
12430;BMP280;6279;42.192;24.326;2023-03-05T01:04:57;98725.22;;;4.51
12430;BMP280;6279;42.192;24.326;2023-03-05T01:07:22;98728.72;;;4.59
12430;BMP280;6279;42.192;24.326;2023-03-05T01:09:48;98732.53;;;4.65
12430;BMP280;6279;42.192;24.326;2023-03-05T01:12:13;98730.63;;;4.67
12430;BMP280;6279;42.192;24.326;2023-03-05T01:14:39;98736.84;;;4.46
12430;BMP280;6279;42.192;24.326;2023-03-05T01:17:04;98729.41;;;4.43
12430;BMP280;6279;42.192;24.326;2023-03-05T01:19:30;98725.88;;;4.44
12430;BMP280;6279;42.192;24.326;2023-03-05T01:21:55;98718.28;;;4.61
12430;BMP280;6279;42.192;24.326;2023-03-05T01:24:21;98717.84;;;4.75
12430;BMP280;6279;42.192;24.326;2023-03-05T01:26:46;98720.25;;;4.95
12430;BMP280;6279;42.192;24.326;2023-03-05T01:29:13;98714.66;;;5.08
12430;BMP280;6279;42.192;24.326;2023-03-05T01:31:39;98708.41;;;5.11
12430;BMP280;6279;42.192;24.326;2023-03-05T01:34:05;98705.41;;;5.15
12430;BMP280;6279;42.192;24.326;2023-03-05T01:36:30;98701.41;;;5.30
12430;BMP280;6279;42.192;24.326;2023-03-05T01:38:56;98698.69;;;5.31
12430;BMP280;6279;42.192;24.326;2023-03-05T01:41:21;98695.16;;;5.32
12430;BMP280;6279;42.192;24.326;2023-03-05T01:43:47;98691.69;;;5.15
12430;BMP280;6279;42.192;24.326;2023-03-05T01:48:54;98682.84;;;5.26
12430;BMP280;6279;42.192;24.326;2023-03-05T01:51:24;98674.50;;;5.42
12430;BMP280;6279;42.192;24.326;2023-03-05T01:53:50;98673.75;;;5.49
12430;BMP280;6279;42.192;24.326;2023-03-05T01:56:16;98675.25;;;5.51
12430;BMP280;6279;42.192;24.326;2023-03-05T01:58:42;98671.25;;;5.40
12430;BMP280;6279;42.192;24.326;2023-03-05T02:01:08;98667.94;;;5.47
12430;BMP280;6279;42.192;24.326;2023-03-05T02:03:35;98671.47;;;5.46
12430;BMP280;6279;42.192;24.326;2023-03-05T02:06:01;98671.28;;;5.30
12430;BMP280;6279;42.192;24.326;2023-03-05T02:08:26;98679.97;;;5.29
12430;BMP280;6279;42.192;24.326;2023-03-05T02:10:54;98678.69;;;5.43
12430;BMP280;6279;42.192;24.326;2023-03-05T02:13:23;98678.56;;;5.44
12430;BMP280;6279;42.192;24.326;2023-03-05T02:15:50;98676.72;;;5.54
12430;BMP280;6279;42.192;24.326;2023-03-05T02:18:17;98680.13;;;5.54
12430;BMP280;6279;42.192;24.326;2023-03-05T02:20:47;98681.22;;;5.52
12430;BMP280;6279;42.192;24.326;2023-03-05T02:23:15;98676.06;;;5.52
12430;BMP280;6279;42.192;24.326;2023-03-05T02:25:41;98673.84;;;5.40
12430;BMP280;6279;42.192;24.326;2023-03-05T02:28:11;98666.94;;;5.31
12430;BMP280;6279;42.192;24.326;2023-03-05T02:30:39;98674.44;;;5.24
12430;BMP280;6279;42.192;24.326;2023-03-05T02:33:04;98674.31;;;5.17
12430;BMP280;6279;42.192;24.326;2023-03-05T02:35:31;98674.38;;;5.07
12430;BMP280;6279;42.192;24.326;2023-03-05T02:37:56;98679.84;;;4.95
12430;BMP280;6279;42.192;24.326;2023-03-05T02:40:22;98669.44;;;4.87
12430;BMP280;6279;42.192;24.326;2023-03-05T02:42:47;98672.28;;;4.84
12430;BMP280;6279;42.192;24.326;2023-03-05T02:45:13;98671.47;;;4.84
12430;BMP280;6279;42.192;24.326;2023-03-05T02:47:39;98666.81;;;4.97
12430;BMP280;6279;42.192;24.326;2023-03-05T02:50:05;98675.78;;;4.93
12430;BMP280;6279;42.192;24.326;2023-03-05T02:52:31;98682.84;;;4.91
12430;BMP280;6279;42.192;24.326;2023-03-05T02:54:57;98684.59;;;4.90
12430;BMP280;6279;42.192;24.326;2023-03-05T02:57:22;98674.44;;;4.89
12430;BMP280;6279;42.192;24.326;2023-03-05T02:59:48;98672.72;;;4.71
12430;BMP280;6279;42.192;24.326;2023-03-05T03:02:13;98677.59;;;4.83
12430;BMP280;6279;42.192;24.326;2023-03-05T03:04:39;98667.81;;;4.86
12430;BMP280;6279;42.192;24.326;2023-03-05T03:07:04;98668.34;;;4.80
12430;BMP280;6279;42.192;24.326;2023-03-05T03:09:30;98675.13;;;4.81
12430;BMP280;6279;42.192;24.326;2023-03-05T03:11:55;98664.16;;;4.80
12430;BMP280;6279;42.192;24.326;2023-03-05T03:14:21;98665.81;;;4.62
12430;BMP280;6279;42.192;24.326;2023-03-05T03:16:46;98659.63;;;4.55
12430;BMP280;6279;42.192;24.326;2023-03-05T03:19:14;98663.94;;;4.45
12430;BMP280;6279;42.192;24.326;2023-03-05T03:21:40;98674.81;;;4.39
12430;BMP280;6279;42.192;24.326;2023-03-05T03:24:06;98675.34;;;4.43
12430;BMP280;6279;42.192;24.326;2023-03-05T03:26:31;98676.03;;;4.36
12430;BMP280;6279;42.192;24.326;2023-03-05T03:28:56;98671.00;;;4.25
12430;BMP280;6279;42.192;24.326;2023-03-05T03:31:22;98670.22;;;4.15
12430;BMP280;6279;42.192;24.326;2023-03-05T03:33:48;98658.81;;;4.27
12430;BMP280;6279;42.192;24.326;2023-03-05T03:36:13;98663.16;;;4.08
12430;BMP280;6279;42.192;24.326;2023-03-05T03:38:38;98666.16;;;4.03
12430;BMP280;6279;42.192;24.326;2023-03-05T03:41:05;98675.06;;;3.90
12430;BMP280;6279;42.192;24.326;2023-03-05T03:43:31;98674.41;;;3.88
12430;BMP280;6279;42.192;24.326;2023-03-05T03:45:56;98669.13;;;3.90
12430;BMP280;6279;42.192;24.326;2023-03-05T03:48:22;98671.56;;;4.00
12430;BMP280;6279;42.192;24.326;2023-03-05T03:50:47;98671.31;;;4.03
12430;BMP280;6279;42.192;24.326;2023-03-05T03:53:13;98663.44;;;4.05
12430;BMP280;6279;42.192;24.326;2023-03-05T03:55:39;98667.09;;;3.93
12430;BMP280;6279;42.192;24.326;2023-03-05T03:58:06;98676.97;;;3.88
12430;BMP280;6279;42.192;24.326;2023-03-05T04:00:32;98669.38;;;3.87
12430;BMP280;6279;42.192;24.326;2023-03-05T04:02:57;98654.13;;;3.94
12430;BMP280;6279;42.192;24.326;2023-03-05T04:05:22;98664.53;;;4.02
12430;BMP280;6279;42.192;24.326;2023-03-05T04:07:48;98664.81;;;3.99
12430;BMP280;6279;42.192;24.326;2023-03-05T04:10:13;98669.53;;;3.85
12430;BMP280;6279;42.192;24.326;2023-03-05T04:12:39;98669.13;;;3.99
12430;BMP280;6279;42.192;24.326;2023-03-05T04:15:07;98669.69;;;4.02
12430;BMP280;6279;42.192;24.326;2023-03-05T04:17:33;98666.53;;;3.90
12430;BMP280;6279;42.192;24.326;2023-03-05T04:19:58;98658.56;;;4.02
12430;BMP280;6279;42.192;24.326;2023-03-05T04:22:23;98664.53;;;4.12
12430;BMP280;6279;42.192;24.326;2023-03-05T04:24:49;98666.56;;;4.17
12430;BMP280;6279;42.192;24.326;2023-03-05T04:27:14;98667.09;;;4.21
12430;BMP280;6279;42.192;24.326;2023-03-05T04:29:40;98669.69;;;4.21
12430;BMP280;6279;42.192;24.326;2023-03-05T04:32:05;98665.34;;;4.31
12430;BMP280;6279;42.192;24.326;2023-03-05T04:34:31;98669.28;;;4.16
12430;BMP280;6279;42.192;24.326;2023-03-05T04:36:57;98662.09;;;4.19
12430;BMP280;6279;42.192;24.326;2023-03-05T04:39:22;98655.84;;;4.22
12430;BMP280;6279;42.192;24.326;2023-03-05T04:41:48;98655.06;;;4.31
12430;BMP280;6279;42.192;24.326;2023-03-05T04:44:13;98660.59;;;4.36
12430;BMP280;6279;42.192;24.326;2023-03-05T04:46:39;98661.53;;;4.35
12430;BMP280;6279;42.192;24.326;2023-03-05T04:49:04;98651.78;;;4.38
12430;BMP280;6279;42.192;24.326;2023-03-05T04:51:30;98643.34;;;4.45
12430;BMP280;6279;42.192;24.326;2023-03-05T04:53:55;98645.94;;;4.55
12430;BMP280;6279;42.192;24.326;2023-03-05T04:56:21;98655.38;;;4.63
12430;BMP280;6279;42.192;24.326;2023-03-05T04:58:46;98655.81;;;4.59
12430;BMP280;6279;42.192;24.326;2023-03-05T05:01:12;98647.66;;;4.63
12430;BMP280;6279;42.192;24.326;2023-03-05T05:03:37;98651.16;;;4.72
12430;BMP280;6279;42.192;24.326;2023-03-05T05:06:03;98644.91;;;4.83
12430;BMP280;6279;42.192;24.326;2023-03-05T05:08:28;98649.19;;;4.92
12430;BMP280;6279;42.192;24.326;2023-03-05T05:10:59;98640.22;;;5.05
12430;BMP280;6279;42.192;24.326;2023-03-05T05:13:25;98649.63;;;5.24
12430;BMP280;6279;42.192;24.326;2023-03-05T05:15:51;98644.38;;;5.42
12430;BMP280;6279;42.192;24.326;2023-03-05T05:18:16;98644.84;;;5.55
12430;BMP280;6279;42.192;24.326;2023-03-05T05:20:42;98651.38;;;5.76
12430;BMP280;6279;42.192;24.326;2023-03-05T05:23:07;98644.47;;;5.93
12430;BMP280;6279;42.192;24.326;2023-03-05T05:25:32;98648.69;;;6.12
12430;BMP280;6279;42.192;24.326;2023-03-05T05:27:58;98648.34;;;6.32
12430;BMP280;6279;42.192;24.326;2023-03-05T05:30:23;98645.09;;;6.47
12430;BMP280;6279;42.192;24.326;2023-03-05T05:32:49;98646.97;;;6.62
12430;BMP280;6279;42.192;24.326;2023-03-05T05:35:14;98650.00;;;6.57
12430;BMP280;6279;42.192;24.326;2023-03-05T05:37:39;98659.81;;;6.54
12430;BMP280;6279;42.192;24.326;2023-03-05T05:40:05;98654.94;;;6.68
12430;BMP280;6279;42.192;24.326;2023-03-05T05:42:33;98671.31;;;6.59
12430;BMP280;6279;42.192;24.326;2023-03-05T05:44:58;98676.31;;;6.36
12430;BMP280;6279;42.192;24.326;2023-03-05T05:47:24;98679.72;;;6.19
12430;BMP280;6279;42.192;24.326;2023-03-05T05:49:50;98688.88;;;6.31
12430;BMP280;6279;42.192;24.326;2023-03-05T05:52:15;98683.28;;;6.43
12430;BMP280;6279;42.192;24.326;2023-03-05T05:54:41;98673.38;;;6.31
12430;BMP280;6279;42.192;24.326;2023-03-05T05:57:06;98670.34;;;6.35
12430;BMP280;6279;42.192;24.326;2023-03-05T05:59:32;98668.66;;;6.69
12430;BMP280;6279;42.192;24.326;2023-03-05T06:01:57;98669.03;;;6.99
12430;BMP280;6279;42.192;24.326;2023-03-05T06:04:23;98668.44;;;7.12
12430;BMP280;6279;42.192;24.326;2023-03-05T06:06:49;98676.84;;;7.14
12430;BMP280;6279;42.192;24.326;2023-03-05T06:09:14;98678.53;;;7.31
12430;BMP280;6279;42.192;24.326;2023-03-05T06:11:39;98681.09;;;7.23
12430;BMP280;6279;42.192;24.326;2023-03-05T06:14:05;98680.13;;;7.16
12430;BMP280;6279;42.192;24.326;2023-03-05T06:16:31;98684.00;;;7.20
12430;BMP280;6279;42.192;24.326;2023-03-05T06:18:57;98687.81;;;7.33
12430;BMP280;6279;42.192;24.326;2023-03-05T06:21:23;98687.34;;;7.45
12430;BMP280;6279;42.192;24.326;2023-03-05T06:23:49;98685.81;;;7.60
12430;BMP280;6279;42.192;24.326;2023-03-05T06:26:17;98692.31;;;7.72
12430;BMP280;6279;42.192;24.326;2023-03-05T06:28:43;98688.00;;;7.88
12430;BMP280;6279;42.192;24.326;2023-03-05T06:31:11;98688.81;;;7.96
12430;BMP280;6279;42.192;24.326;2023-03-05T06:33:37;98686.13;;;8.13
12430;BMP280;6279;42.192;24.326;2023-03-05T06:36:08;98681.63;;;8.39
12430;BMP280;6279;42.192;24.326;2023-03-05T06:38:34;98686.47;;;8.57
12430;BMP280;6279;42.192;24.326;2023-03-05T06:41:01;98674.34;;;8.81
12430;BMP280;6279;42.192;24.326;2023-03-05T06:43:27;98681.25;;;9.04
12430;BMP280;6279;42.192;24.326;2023-03-05T06:46:05;98678.47;;;9.21
12430;BMP280;6279;42.192;24.326;2023-03-05T06:48:31;98691.63;;;9.04
12430;BMP280;6279;42.192;24.326;2023-03-05T06:50:56;98680.75;;;9.09
12430;BMP280;6279;42.192;24.326;2023-03-05T06:53:25;98688.50;;;9.32
12430;BMP280;6279;42.192;24.326;2023-03-05T06:55:51;98673.19;;;9.45
12430;BMP280;6279;42.192;24.326;2023-03-05T06:58:17;98673.50;;;9.50
12430;BMP280;6279;42.192;24.326;2023-03-05T07:00:43;98668.28;;;9.58
12430;BMP280;6279;42.192;24.326;2023-03-05T07:03:09;98678.66;;;9.65
12430;BMP280;6279;42.192;24.326;2023-03-05T07:05:37;98667.56;;;9.71
12430;BMP280;6279;42.192;24.326;2023-03-05T07:08:02;98670.13;;;9.79
12430;BMP280;6279;42.192;24.326;2023-03-05T07:10:28;98662.00;;;9.90
12430;BMP280;6279;42.192;24.326;2023-03-05T07:12:53;98666.78;;;10.01
12430;BMP280;6279;42.192;24.326;2023-03-05T07:15:19;98666.09;;;10.07
12430;BMP280;6279;42.192;24.326;2023-03-05T07:17:44;98657.34;;;10.07
12430;BMP280;6279;42.192;24.326;2023-03-05T07:20:10;98657.16;;;10.31
12430;BMP280;6279;42.192;24.326;2023-03-05T07:22:36;98648.53;;;10.52
12430;BMP280;6279;42.192;24.326;2023-03-05T07:25:03;98646.72;;;10.75
12430;BMP280;6279;42.192;24.326;2023-03-05T07:27:29;98650.88;;;10.98
12430;BMP280;6279;42.192;24.326;2023-03-05T07:29:54;98646.31;;;11.14
12430;BMP280;6279;42.192;24.326;2023-03-05T07:32:19;98637.72;;;11.28
12430;BMP280;6279;42.192;24.326;2023-03-05T07:34:45;98638.88;;;11.39
12430;BMP280;6279;42.192;24.326;2023-03-05T07:37:10;98621.44;;;11.68
12430;BMP280;6279;42.192;24.326;2023-03-05T07:39:37;98623.84;;;11.84
12430;BMP280;6279;42.192;24.326;2023-03-05T07:42:02;98620.50;;;12.10
12430;BMP280;6279;42.192;24.326;2023-03-05T07:44:28;98608.25;;;12.31
12430;BMP280;6279;42.192;24.326;2023-03-05T07:46:53;98619.94;;;12.56
12430;BMP280;6279;42.192;24.326;2023-03-05T07:49:18;98618.31;;;12.75
12430;BMP280;6279;42.192;24.326;2023-03-05T07:51:44;98611.44;;;12.95
12430;BMP280;6279;42.192;24.326;2023-03-05T07:54:09;98616.56;;;13.09
12430;BMP280;6279;42.192;24.326;2023-03-05T07:56:35;98621.81;;;13.15
12430;BMP280;6279;42.192;24.326;2023-03-05T07:59:04;98616.88;;;13.33
12430;BMP280;6279;42.192;24.326;2023-03-05T08:01:30;98628.81;;;13.48
12430;BMP280;6279;42.192;24.326;2023-03-05T08:03:56;98624.81;;;13.58
12430;BMP280;6279;42.192;24.326;2023-03-05T08:06:21;98613.22;;;13.67
12430;BMP280;6279;42.192;24.326;2023-03-05T08:08:47;98613.13;;;13.94
12430;BMP280;6279;42.192;24.326;2023-03-05T08:11:14;98613.81;;;14.15
12430;BMP280;6279;42.192;24.326;2023-03-05T08:13:40;98618.81;;;14.10
12430;BMP280;6279;42.192;24.326;2023-03-05T08:16:09;98616.63;;;14.14
12430;BMP280;6279;42.192;24.326;2023-03-05T08:18:35;98615.84;;;14.39
12430;BMP280;6279;42.192;24.326;2023-03-05T08:21:00;98611.25;;;14.72
12430;BMP280;6279;42.192;24.326;2023-03-05T08:23:26;98609.34;;;15.36
12430;BMP280;6279;42.192;24.326;2023-03-05T08:25:52;98610.84;;;15.76
12430;BMP280;6279;42.192;24.326;2023-03-05T08:28:18;98599.59;;;15.99
12430;BMP280;6279;42.192;24.326;2023-03-05T08:30:47;98605.06;;;16.04
12430;BMP280;6279;42.192;24.326;2023-03-05T08:33:13;98604.84;;;15.99
12430;BMP280;6279;42.192;24.326;2023-03-05T08:35:39;98607.97;;;15.83
12430;BMP280;6279;42.192;24.326;2023-03-05T08:38:05;98597.47;;;15.83
12430;BMP280;6279;42.192;24.326;2023-03-05T08:40:31;98600.84;;;15.90
12430;BMP280;6279;42.192;24.326;2023-03-05T08:42:57;98602.59;;;16.09
12430;BMP280;6279;42.192;24.326;2023-03-05T08:45:25;98596.03;;;16.30
12430;BMP280;6279;42.192;24.326;2023-03-05T08:47:52;98596.84;;;16.24
12430;BMP280;6279;42.192;24.326;2023-03-05T08:50:17;98585.53;;;16.54
12430;BMP280;6279;42.192;24.326;2023-03-05T08:52:43;98586.47;;;16.66
12430;BMP280;6279;42.192;24.326;2023-03-05T08:55:10;98580.28;;;16.54
12430;BMP280;6279;42.192;24.326;2023-03-05T08:57:36;98582.63;;;16.86
12430;BMP280;6279;42.192;24.326;2023-03-05T09:00:02;98573.88;;;17.33
12430;BMP280;6279;42.192;24.326;2023-03-05T09:02:27;98564.13;;;18.16
12430;BMP280;6279;42.192;24.326;2023-03-05T09:04:54;98565.84;;;18.10
12430;BMP280;6279;42.192;24.326;2023-03-05T09:07:19;98566.94;;;18.32
12430;BMP280;6279;42.192;24.326;2023-03-05T09:09:45;98563.59;;;18.99
12430;BMP280;6279;42.192;24.326;2023-03-05T09:12:10;98567.75;;;20.65
12430;BMP280;6279;42.192;24.326;2023-03-05T09:14:38;98568.81;;;20.65
12430;BMP280;6279;42.192;24.326;2023-03-05T09:17:03;98561.72;;;21.02
12430;BMP280;6279;42.192;24.326;2023-03-05T09:19:28;98563.63;;;21.23
12430;BMP280;6279;42.192;24.326;2023-03-05T09:21:54;98567.56;;;20.40
12430;BMP280;6279;42.192;24.326;2023-03-05T09:24:19;98570.41;;;19.56
12430;BMP280;6279;42.192;24.326;2023-03-05T09:26:45;98570.00;;;19.25
12430;BMP280;6279;42.192;24.326;2023-03-05T09:29:10;98580.22;;;18.99
12430;BMP280;6279;42.192;24.326;2023-03-05T09:31:36;98569.28;;;18.62
12430;BMP280;6279;42.192;24.326;2023-03-05T09:34:03;98573.78;;;17.93
12430;BMP280;6279;42.192;24.326;2023-03-05T09:36:30;98572.03;;;17.52
12430;BMP280;6279;42.192;24.326;2023-03-05T09:38:56;98565.25;;;17.44
12430;BMP280;6279;42.192;24.326;2023-03-05T09:49:39;98538.03;;;19.10
12430;BMP280;6279;42.192;24.326;2023-03-05T09:52:12;98532.16;;;21.21
12430;BMP280;6279;42.192;24.326;2023-03-05T09:54:42;98535.78;;;21.99
12430;BMP280;6279;42.192;24.326;2023-03-05T09:57:22;98527.47;;;21.70
12430;BMP280;6279;42.192;24.326;2023-03-05T10:00:06;98526.59;;;21.86
12430;BMP280;6279;42.192;24.326;2023-03-05T10:02:36;98521.25;;;22.02
12430;BMP280;6279;42.192;24.326;2023-03-05T10:05:17;98516.03;;;22.12
12430;BMP280;6279;42.192;24.326;2023-03-05T10:08:02;98512.84;;;23.57
12430;BMP280;6279;42.192;24.326;2023-03-05T10:10:41;98505.00;;;23.97
12430;BMP280;6279;42.192;24.326;2023-03-05T10:13:36;98508.81;;;24.35
12430;BMP280;6279;42.192;24.326;2023-03-05T10:21:35;98498.09;;;23.30
12430;BMP280;6279;42.192;24.326;2023-03-05T10:24:18;98486.75;;;24.54
12430;BMP280;6279;42.192;24.326;2023-03-05T10:40:48;98459.13;;;25.51
12430;BMP280;6279;42.192;24.326;2023-03-05T10:46:04;98446.19;;;23.44
12430;BMP280;6279;42.192;24.326;2023-03-05T10:48:39;98443.31;;;23.05
12430;BMP280;6279;42.192;24.326;2023-03-05T10:53:56;98443.72;;;22.11
12430;BMP280;6279;42.192;24.326;2023-03-05T10:56:24;98437.44;;;20.44
12430;BMP280;6279;42.192;24.326;2023-03-05T10:58:51;98431.16;;;20.18
12430;BMP280;6279;42.192;24.326;2023-03-05T11:03:48;98401.75;;;20.09
12430;BMP280;6279;42.192;24.326;2023-03-05T11:06:26;98397.22;;;20.42
12430;BMP280;6279;42.192;24.326;2023-03-05T11:08:52;98387.06;;;22.12
12430;BMP280;6279;42.192;24.326;2023-03-05T11:11:19;98376.66;;;22.82
12430;BMP280;6279;42.192;24.326;2023-03-05T11:13:55;98371.38;;;23.86
12430;BMP280;6279;42.192;24.326;2023-03-05T11:16:29;98372.69;;;24.52
12430;BMP280;6279;42.192;24.326;2023-03-05T11:21:43;98367.97;;;22.91
12430;BMP280;6279;42.192;24.326;2023-03-05T11:24:10;98366.69;;;22.53
12430;BMP280;6279;42.192;24.326;2023-03-05T11:26:45;98354.00;;;22.60
12430;BMP280;6279;42.192;24.326;2023-03-05T11:29:17;98344.81;;;23.86
12430;BMP280;6279;42.192;24.326;2023-03-05T11:31:43;98330.63;;;24.79
12430;BMP280;6279;42.192;24.326;2023-03-05T11:39:22;98318.97;;;28.79
12430;BMP280;6279;42.192;24.326;2023-03-05T11:42:00;98321.75;;;29.00
12430;BMP280;6279;42.192;24.326;2023-03-05T11:47:43;98325.34;;;24.54
12430;BMP280;6279;42.192;24.326;2023-03-05T11:50:22;98324.09;;;23.49
12430;BMP280;6279;42.192;24.326;2023-03-05T11:52:49;98328.88;;;22.22
12430;BMP280;6279;42.192;24.326;2023-03-05T12:00:52;98306.75;;;21.40
12430;BMP280;6279;42.192;24.326;2023-03-05T12:03:20;98305.91;;;21.97
12430;BMP280;6279;42.192;24.326;2023-03-05T12:05:50;98293.34;;;22.18
12430;BMP280;6279;42.192;24.326;2023-03-05T12:08:24;98308.13;;;21.78
12430;BMP280;6279;42.192;24.326;2023-03-05T12:10:51;98299.53;;;21.31
12430;BMP280;6279;42.192;24.326;2023-03-05T12:13:31;98298.72;;;21.31
12430;BMP280;6279;42.192;24.326;2023-03-05T12:16:07;98293.22;;;21.37
12430;BMP280;6279;42.192;24.326;2023-03-05T12:18:53;98307.75;;;20.66
12430;BMP280;6279;42.192;24.326;2023-03-05T12:21:34;98310.75;;;20.54
12430;BMP280;6279;42.192;24.326;2023-03-05T12:24:31;98304.69;;;20.37
12430;BMP280;6279;42.192;24.326;2023-03-05T12:32:00;98298.53;;;20.11
12430;BMP280;6279;42.192;24.326;2023-03-05T12:47:44;98305.19;;;19.33
12430;BMP280;6279;42.192;24.326;2023-03-05T12:52:52;98291.50;;;19.19
12430;BMP280;6279;42.192;24.326;2023-03-05T13:00:50;98306.22;;;18.16
12430;BMP280;6279;42.192;24.326;2023-03-05T13:03:23;98311.66;;;17.69
12430;BMP280;6279;42.192;24.326;2023-03-05T13:05:53;98302.91;;;17.98
12430;BMP280;6279;42.192;24.326;2023-03-05T13:08:29;98299.81;;;18.12
12430;BMP280;6279;42.192;24.326;2023-03-05T13:13:54;98302.91;;;17.98
12430;BMP280;6279;42.192;24.326;2023-03-05T13:16:26;98302.19;;;17.68
12430;BMP280;6279;42.192;24.326;2023-03-05T13:18:55;98301.84;;;17.54
12430;BMP280;6279;42.192;24.326;2023-03-05T13:21:26;98302.78;;;17.70
12430;BMP280;6279;42.192;24.326;2023-03-05T13:24:01;98308.38;;;17.62
12430;BMP280;6279;42.192;24.326;2023-03-05T13:26:40;98309.63;;;17.60
12430;BMP280;6279;42.192;24.326;2023-03-05T13:29:10;98301.25;;;17.52
12430;BMP280;6279;42.192;24.326;2023-03-05T13:31:43;98301.03;;;17.42
12430;BMP280;6279;42.192;24.326;2023-03-05T13:34:19;98293.31;;;17.18
12430;BMP280;6279;42.192;24.326;2023-03-05T13:36:51;98295.22;;;17.00
12430;BMP280;6279;42.192;24.326;2023-03-05T13:39:21;98287.81;;;17.08
12430;BMP280;6279;42.192;24.326;2023-03-05T13:42:06;98290.59;;;17.24
12430;BMP280;6279;42.192;24.326;2023-03-05T13:44:38;98288.38;;;17.10
12430;BMP280;6279;42.192;24.326;2023-03-05T13:47:16;98287.13;;;17.12
12430;BMP280;6279;42.192;24.326;2023-03-05T13:49:45;98283.34;;;17.09
12430;BMP280;6279;42.192;24.326;2023-03-05T13:52:12;98278.47;;;17.23
12430;BMP280;6279;42.192;24.326;2023-03-05T13:55:19;98284.72;;;16.82
12430;BMP280;6279;42.192;24.326;2023-03-05T13:57:45;98274.41;;;16.52
12430;BMP280;6279;42.192;24.326;2023-03-05T14:00:36;98274.94;;;16.43
12430;BMP280;6279;42.192;24.326;2023-03-05T14:03:25;98268.47;;;16.45
12430;BMP280;6279;42.192;24.326;2023-03-05T14:05:52;98268.47;;;16.45
12430;BMP280;6279;42.192;24.326;2023-03-05T14:08:21;98271.97;;;16.22
12430;BMP280;6279;42.192;24.326;2023-03-05T14:10:48;98268.03;;;16.13
12430;BMP280;6279;42.192;24.326;2023-03-05T14:13:19;98264.63;;;16.12
12430;BMP280;6279;42.192;24.326;2023-03-05T14:16:05;98271.91;;;15.86
12430;BMP280;6279;42.192;24.326;2023-03-05T14:18:31;98262.53;;;15.97
12430;BMP280;6279;42.192;24.326;2023-03-05T14:21:01;98264.13;;;15.80
12430;BMP280;6279;42.192;24.326;2023-03-05T14:23:41;98272.44;;;15.53
12430;BMP280;6279;42.192;24.326;2023-03-05T14:29:02;98259.72;;;15.33
12430;BMP280;6279;42.192;24.326;2023-03-05T14:31:30;98257.47;;;15.12
12430;BMP280;6279;42.192;24.326;2023-03-05T14:34:05;98261.38;;;14.97
12430;BMP280;6279;42.192;24.326;2023-03-05T14:36:32;98252.56;;;14.91
12430;BMP280;6279;42.192;24.326;2023-03-05T14:38:58;98248.41;;;14.78
12430;BMP280;6279;42.192;24.326;2023-03-05T14:43:57;98255.28;;;14.72
12430;BMP280;6279;42.192;24.326;2023-03-05T14:46:23;98254.50;;;14.66
12430;BMP280;6279;42.192;24.326;2023-03-05T14:48:48;98250.28;;;14.65
12430;BMP280;6279;42.192;24.326;2023-03-05T14:51:14;98247.88;;;14.63
12430;BMP280;6279;42.192;24.326;2023-03-05T14:53:43;98251.50;;;14.62
12430;BMP280;6279;42.192;24.326;2023-03-05T14:56:29;98243.72;;;14.56
12430;BMP280;6279;42.192;24.326;2023-03-05T14:58:55;98245.31;;;14.57
12430;BMP280;6279;42.192;24.326;2023-03-05T15:01:22;98246.91;;;14.58
12430;BMP280;6279;42.192;24.326;2023-03-05T15:03:49;98240.16;;;14.44
12430;BMP280;6279;42.192;24.326;2023-03-05T15:06:22;98234.19;;;14.25
12430;BMP280;6279;42.192;24.326;2023-03-05T15:08:49;98239.66;;;14.23
12430;BMP280;6279;42.192;24.326;2023-03-05T15:11:14;98247.50;;;14.23
12430;BMP280;6279;42.192;24.326;2023-03-05T15:13:40;98243.34;;;14.03
12430;BMP280;6279;42.192;24.326;2023-03-05T15:16:05;98245.78;;;13.92
12430;BMP280;6279;42.192;24.326;2023-03-05T15:18:31;98246.19;;;13.82
12430;BMP280;6279;42.192;24.326;2023-03-05T15:20:57;98253.22;;;13.82
12430;BMP280;6279;42.192;24.326;2023-03-05T15:23:22;98249.03;;;13.68
12430;BMP280;6279;42.192;24.326;2023-03-05T15:25:48;98251.25;;;13.65
12430;BMP280;6279;42.192;24.326;2023-03-05T15:28:14;98247.84;;;13.52
12430;BMP280;6279;42.192;24.326;2023-03-05T15:30:43;98248.69;;;13.46
12430;BMP280;6279;42.192;24.326;2023-03-05T15:33:11;98257.09;;;13.35
12430;BMP280;6279;42.192;24.326;2023-03-05T15:35:37;98259.13;;;13.27
12430;BMP280;6279;42.192;24.326;2023-03-05T15:38:02;98255.31;;;13.16
12430;BMP280;6279;42.192;24.326;2023-03-05T15:40:28;98260.31;;;13.12
12430;BMP280;6279;42.192;24.326;2023-03-05T15:42:55;98256.28;;;13.03
12430;BMP280;6279;42.192;24.326;2023-03-05T15:45:21;98258.31;;;13.01
12430;BMP280;6279;42.192;24.326;2023-03-05T15:47:50;98259.91;;;12.89